Terminal Aerodrome Forecast
Issued by NWS

Current Version | Previous Version | Text Only | Print | Product List | Glossary On
Versions: 1 2 3 4 5 6 7 8 9 10 11 12 13 14 15 16 17 18 19 20 21 22
000
FTUS43 KDMX 250545 AAA
TAFMCW
TAF AMD
KMCW 250545Z 2506/2606 04013KT 6SM BR OVC007
     FM251500 04020G26KT P6SM OVC007
     FM251900 05015G24KT P6SM -SHRA OVC005
     FM260100 05012G19KT P6SM OVC003=

USA.gov is the U.S. government's official web portal to all federal, state and local government web resources and services.